Time;durP1;ratioP1;P1;durP2;ratioP2;P2;SDS_P1;SDS_P2;PMS_P1;PMS_P2;Temp;Humidity;BMP_temperature;BMP_pressure;BME280_temperature;BME280_humidity;BME280_pressure;Samples;Min_cycle;Max_cycle;Signal;HPM_P1;HPM_P2
2023/06/14 00:02:03;;;;;;;11.05;4.82;;;;;;;-144.87;100.00;61487.56;5015265;28;20037;-70
2023/06/14 00:04:30;;;;;;;8.27;4.85;;;;;;;-144.87;100.00;61487.56;5016864;28;20034;-71
2023/06/14 00:06:57;;;;;;;11.65;4.70;;;;;;;-144.87;100.00;61487.56;5016045;28;20069;-70
2023/06/14 00:09:23;;;;;;;12.52;4.88;;;;;;;-144.87;100.00;61487.56;5015750;28;20061;-70
2023/06/14 00:11:50;;;;;;;8.68;4.75;;;;;;;-144.87;100.00;61487.56;4982057;28;20128;-74
2023/06/14 00:14:16;;;;;;;11.07;4.93;;;;;;;-144.87;100.00;61487.56;4998901;28;20049;-69
2023/06/14 00:16:42;;;;;;;14.75;4.65;;;;;;;-144.87;100.00;61487.56;4975956;28;20050;-70
2023/06/14 00:19:11;;;;;;;12.05;4.95;;;;;;;-144.87;100.00;61487.56;5005592;28;20041;-70
2023/06/14 00:21:38;;;;;;;17.42;4.30;;;;;;;-144.87;100.00;61487.56;4999470;28;20049;-70
2023/06/14 00:24:05;;;;;;;16.55;4.90;;;;;;;-144.87;100.00;61487.56;4988092;28;20042;-71
2023/06/14 00:26:31;;;;;;;8.07;4.82;;;;;;;-144.87;100.00;61487.56;4963962;28;20026;-71
2023/06/14 00:28:57;;;;;;;8.15;4.20;;;;;;;-144.87;100.00;61487.56;4951718;28;20038;-70
2023/06/14 00:31:25;;;;;;;13.82;4.45;;;;;;;-144.87;100.00;61487.56;4972439;28;20045;-71
2023/06/14 00:33:54;;;;;;;18.33;4.70;;;;;;;-144.87;100.00;61487.56;4971288;28;20030;-70
2023/06/14 00:36:20;;;;;;;8.43;5.05;;;;;;;-144.87;100.00;61487.56;4993243;28;20045;-71
2023/06/14 00:38:46;;;;;;;16.60;4.30;;;;;;;-144.87;100.00;61487.56;4962621;28;20046;-71
2023/06/14 00:41:13;;;;;;;8.80;4.60;;;;;;;-144.87;100.00;61487.56;4988086;28;20104;-70
2023/06/14 00:43:41;;;;;;;7.90;4.25;;;;;;;-144.87;100.00;61487.56;4972137;28;20068;-69
2023/06/14 00:46:09;;;;;;;9.35;4.28;;;;;;;-144.87;100.00;61487.56;4982116;28;20633;-71
2023/06/14 00:48:37;;;;;;;16.95;4.15;;;;;;;-144.87;100.00;61487.56;4996144;28;20074;-70
2023/06/14 00:51:03;;;;;;;10.18;4.10;;;;;;;-144.87;100.00;61487.56;4987705;28;20041;-71
2023/06/14 00:53:31;;;;;;;11.45;5.97;;;;;;;-144.87;100.00;61487.56;4979570;28;20046;-72
2023/06/14 00:55:58;;;;;;;10.55;4.20;;;;;;;-144.87;100.00;61487.56;4992861;28;20042;-71
2023/06/14 00:58:24;;;;;;;9.68;4.40;;;;;;;-144.87;100.00;61487.56;5004241;28;20041;-72
2023/06/14 01:00:51;;;;;;;6.72;4.03;;;;;;;-144.87;100.00;61487.56;4988405;28;20031;-70
2023/06/14 01:03:21;;;;;;;10.30;4.80;;;;;;;-144.87;100.00;61487.56;4989539;28;20042;-70
2023/06/14 01:05:49;;;;;;;11.68;4.57;;;;;;;-144.87;100.00;61487.56;4987536;28;20493;-71
2023/06/14 01:08:25;;;;;;;15.77;4.43;;;;;;;-144.87;100.00;61487.56;4988247;28;20041;-72
2023/06/14 01:11:05;;;;;;;10.05;4.70;;;;;;;-144.87;100.00;61487.56;5001217;28;20037;-70
2023/06/14 01:13:36;;;;;;;7.22;4.13;;;;;;;-144.87;100.00;61487.56;5025257;28;20132;-71
2023/06/14 01:16:03;;;;;;;11.38;4.63;;;;;;;-144.87;100.00;61487.56;5020135;28;20050;-69
2023/06/14 01:18:31;;;;;;;12.10;4.70;;;;;;;-144.87;100.00;61487.56;5027342;28;20037;-70
2023/06/14 01:20:57;;;;;;;15.85;6.70;;;;;;;-144.87;100.00;61487.56;5017933;28;20037;-70
2023/06/14 01:23:25;;;;;;;14.68;4.68;;;;;;;-144.87;100.00;61487.56;5020420;28;20402;-71
2023/06/14 01:25:52;;;;;;;12.30;4.45;;;;;;;-144.87;100.00;61487.56;5023853;28;20029;-70
2023/06/14 01:28:20;;;;;;;8.38;4.00;;;;;;;-144.87;100.00;61487.56;5030598;28;20061;-70
2023/06/14 01:30:49;;;;;;;7.15;4.60;;;;;;;-144.87;100.00;61487.56;5012629;28;20458;-70
2023/06/14 01:33:17;;;;;;;25.50;5.57;;;;;;;-144.87;100.00;61487.56;5029911;28;20048;-69
2023/06/14 01:35:47;;;;;;;12.30;4.85;;;;;;;-144.87;100.00;61487.56;5009290;28;20022;-70
2023/06/14 01:38:14;;;;;;;11.43;4.78;;;;;;;-144.87;100.00;61487.56;5021602;28;20037;-70
2023/06/14 01:40:42;;;;;;;12.95;4.70;;;;;;;-144.87;100.00;61487.56;5028146;28;20037;-70
2023/06/14 01:43:10;;;;;;;9.68;4.85;;;;;;;-144.87;100.00;61487.56;5018988;28;20038;-70
2023/06/14 01:45:37;;;;;;;11.88;4.50;;;;;;;-144.87;100.00;61487.56;5018409;28;20026;-71
2023/06/14 01:48:04;;;;;;;16.23;4.97;;;;;;;-144.87;100.00;61487.56;5008139;28;20097;-68
2023/06/14 01:50:32;;;;;;;12.95;4.35;;;;;;;-144.87;100.00;61487.56;5040439;28;20044;-70
2023/06/14 01:52:58;;;;;;;13.27;4.85;;;;;;;-144.87;100.00;61487.56;5007577;28;20025;-70
2023/06/14 01:55:25;;;;;;;15.00;4.70;;;;;;;-144.87;100.00;61487.56;5033604;28;20081;-68
2023/06/14 01:57:52;;;;;;;11.63;4.88;;;;;;;-144.87;100.00;61487.56;5038908;28;20033;-69
2023/06/14 02:00:19;;;;;;;9.32;4.43;;;;;;;-144.87;100.00;61487.56;5038835;28;20048;-70
2023/06/14 02:02:49;;;;;;;11.25;4.68;;;;;;;-144.87;100.00;61487.56;5044616;28;20072;-70
2023/06/14 02:05:18;;;;;;;8.70;4.70;;;;;;;-144.87;100.00;61487.56;5029743;28;20029;-70
2023/06/14 02:07:46;;;;;;;11.70;4.70;;;;;;;-144.87;100.00;61487.56;5040940;28;20038;-71
2023/06/14 02:10:15;;;;;;;11.43;4.90;;;;;;;-144.87;100.00;61487.56;5017689;28;20066;-71
2023/06/14 02:12:41;;;;;;;10.18;4.80;;;;;;;-144.87;100.00;61487.56;4991847;28;20045;-70
2023/06/14 02:15:09;;;;;;;11.55;4.85;;;;;;;-144.87;100.00;61487.56;4995541;28;20034;-70
2023/06/14 02:17:36;;;;;;;13.35;4.90;;;;;;;-144.87;100.00;61487.56;4976239;28;20038;-70
2023/06/14 02:20:08;;;;;;;9.10;5.00;;;;;;;-144.87;100.00;61487.56;4964181;28;20043;-70
2023/06/14 02:22:34;;;;;;;8.68;4.85;;;;;;;-144.87;100.00;61487.56;4972012;28;20050;-70
2023/06/14 02:25:00;;;;;;;7.68;4.45;;;;;;;-144.87;100.00;61487.56;4996364;28;20232;-70
2023/06/14 02:27:27;;;;;;;12.77;5.47;;;;;;;-144.87;100.00;61487.56;4969735;28;20129;-70
2023/06/14 02:29:53;;;;;;;12.13;4.80;;;;;;;-144.87;100.00;61487.56;4982648;28;20125;-71
2023/06/14 02:32:19;;;;;;;11.18;4.22;;;;;;;-144.87;100.00;61487.56;4988070;28;20938;-70
2023/06/14 02:34:49;;;;;;;13.30;4.95;;;;;;;-144.87;100.00;61487.56;4999913;28;20022;-71
2023/06/14 02:37:16;;;;;;;10.47;4.73;;;;;;;-144.87;100.00;61487.56;4999515;28;20052;-71
2023/06/14 02:39:43;;;;;;;15.00;4.85;;;;;;;-144.87;100.00;61487.56;4997440;28;20105;-71
2023/06/14 02:42:10;;;;;;;17.17;4.80;;;;;;;-144.87;100.00;61487.56;5002362;28;20030;-70
2023/06/14 02:44:36;;;;;;;8.48;4.55;;;;;;;-144.87;100.00;61487.56;4982205;28;20038;-70
2023/06/14 02:47:03;;;;;;;10.90;4.93;;;;;;;-144.87;100.00;61487.56;4989398;28;20026;-71
2023/06/14 02:49:29;;;;;;;18.20;4.95;;;;;;;-144.87;100.00;61487.56;4992393;28;20065;-70
2023/06/14 02:51:56;;;;;;;13.15;4.20;;;;;;;-144.87;100.00;61487.56;4962834;28;20033;-72
2023/06/14 02:54:22;;;;;;;10.35;4.40;;;;;;;-144.87;100.00;61487.56;5001748;28;20117;-71
2023/06/14 02:56:48;;;;;;;17.08;4.82;;;;;;;-144.87;100.00;61487.56;4972575;28;20376;-72
2023/06/14 02:59:16;;;;;;;13.05;5.10;;;;;;;-144.87;100.00;61487.56;4970522;28;20045;-71
2023/06/14 03:01:43;;;;;;;14.20;4.82;;;;;;;-144.87;100.00;61487.56;4999892;28;20044;-70
2023/06/14 03:04:14;;;;;;;12.33;4.50;;;;;;;-144.87;100.00;61487.56;4981140;28;20037;-71
2023/06/14 03:06:44;;;;;;;11.65;4.47;;;;;;;-144.87;100.00;61487.56;4974275;28;20368;-72
2023/06/14 03:09:11;;;;;;;12.98;5.03;;;;;;;-144.87;100.00;61487.56;4975220;28;20058;-71
2023/06/14 03:11:39;;;;;;;11.55;4.75;;;;;;;-144.87;100.00;61487.56;4983853;28;20061;-71
2023/06/14 03:14:06;;;;;;;10.68;4.60;;;;;;;-144.87;100.00;61487.56;4976158;28;20049;-71
2023/06/14 03:16:33;;;;;;;10.77;4.57;;;;;;;-144.87;100.00;61487.56;4974166;28;20035;-71
2023/06/14 03:19:00;;;;;;;13.88;4.88;;;;;;;-144.87;100.00;61487.56;4975953;28;20045;-71
2023/06/14 03:21:30;;;;;;;11.40;4.78;;;;;;;-144.87;100.00;61487.56;4972942;28;20062;-70
2023/06/14 03:23:59;;;;;;;16.92;4.40;;;;;;;-144.87;100.00;61487.56;4983762;28;20323;-70
2023/06/14 03:26:26;;;;;;;9.50;4.63;;;;;;;-144.87;100.00;61487.56;4993635;28;20048;-71
2023/06/14 03:28:54;;;;;;;13.63;5.18;;;;;;;-144.87;100.00;61487.56;4989499;28;20053;-70
2023/06/14 03:31:23;;;;;;;11.82;4.97;;;;;;;-144.87;100.00;61487.56;4988108;28;20494;-71
2023/06/14 03:33:50;;;;;;;13.20;4.78;;;;;;;-144.87;100.00;61487.56;4984894;28;20205;-71
2023/06/14 03:36:18;;;;;;;19.75;6.10;;;;;;;-144.87;100.00;61487.56;4964435;28;20035;-72
2023/06/14 03:38:45;;;;;;;7.45;4.72;;;;;;;-144.87;100.00;61487.56;4986117;28;20034;-71
2023/06/14 03:41:12;;;;;;;10.05;5.05;;;;;;;-144.87;100.00;61487.56;4964146;28;20392;-71
2023/06/14 03:43:39;;;;;;;11.68;5.35;;;;;;;-144.87;100.00;61487.56;4981466;28;20038;-71
2023/06/14 03:46:05;;;;;;;7.68;5.10;;;;;;;-144.87;100.00;61487.56;4978568;28;20034;-71
2023/06/14 03:48:34;;;;;;;10.93;5.32;;;;;;;-144.87;100.00;61487.56;4983210;28;20045;-71
2023/06/14 03:51:02;;;;;;;9.88;4.78;;;;;;;-144.87;100.00;61487.56;4979766;28;20034;-72
2023/06/14 03:53:29;;;;;;;9.65;4.30;;;;;;;-144.87;100.00;61487.56;4987217;28;20049;-71
2023/06/14 03:55:57;;;;;;;12.32;4.63;;;;;;;-144.87;100.00;61487.56;4989261;28;20061;-70
2023/06/14 03:58:25;;;;;;;16.10;4.70;;;;;;;-144.87;100.00;61487.56;4985793;28;20129;-71
2023/06/14 04:00:51;;;;;;;13.10;6.88;;;;;;;-144.87;100.00;61487.56;4964354;28;20036;-71
2023/06/14 04:03:19;;;;;;;17.33;5.10;;;;;;;-144.87;100.00;61487.56;5000448;28;20041;-71
2023/06/14 04:05:49;;;;;;;23.60;4.85;;;;;;;-144.87;100.00;61487.56;4969317;28;20036;-71
2023/06/14 04:08:16;;;;;;;14.63;4.63;;;;;;;-144.87;100.00;61487.56;4982287;28;20094;-72
2023/06/14 04:10:42;;;;;;;11.60;4.80;;;;;;;-144.87;100.00;61487.56;5011312;28;20151;-72
2023/06/14 04:13:12;;;;;;;8.52;4.95;;;;;;;-144.87;100.00;61487.56;5027807;28;20506;-72
2023/06/14 04:15:41;;;;;;;12.45;4.60;;;;;;;-144.87;100.00;61487.56;5005023;28;20530;-71
2023/06/14 04:18:08;;;;;;;16.27;4.80;;;;;;;-144.87;100.00;61487.56;5018837;28;20113;-71
2023/06/14 04:20:35;;;;;;;12.43;4.65;;;;;;;-144.87;100.00;61487.56;5014922;28;20151;-71
2023/06/14 04:23:18;;;;;;;24.25;6.25;;;;;;;-144.87;100.00;61487.56;5013168;28;20041;-71
2023/06/14 04:25:45;;;;;;;16.63;5.20;;;;;;;-144.87;100.00;61487.56;5020817;28;20034;-70
2023/06/14 04:28:19;;;;;;;10.82;5.15;;;;;;;-144.87;100.00;61487.56;5015203;28;20169;-71
2023/06/14 04:30:48;;;;;;;11.68;4.65;;;;;;;-144.87;100.00;61487.56;5005934;28;20025;-70
2023/06/14 04:33:17;;;;;;;16.35;4.78;;;;;;;-144.87;100.00;61487.56;5019999;28;20030;-70
2023/06/14 04:35:47;;;;;;;12.68;5.00;;;;;;;-144.87;100.00;61487.56;5003784;28;20034;-71
2023/06/14 04:38:15;;;;;;;12.47;4.50;;;;;;;-144.87;100.00;61487.56;5019705;28;20044;-70
2023/06/14 04:40:45;;;;;;;16.05;4.72;;;;;;;-144.87;100.00;61487.56;5006219;28;20085;-70
2023/06/14 04:43:17;;;;;;;9.48;4.78;;;;;;;-144.87;100.00;61487.56;5025468;28;20129;-72
2023/06/14 04:45:46;;;;;;;11.25;4.50;;;;;;;-144.87;100.00;61487.56;5028476;28;20128;-70
2023/06/14 04:48:13;;;;;;;13.38;4.10;;;;;;;-144.87;100.00;61487.56;5011931;28;20045;-70
2023/06/14 04:50:40;;;;;;;10.13;4.38;;;;;;;-144.87;100.00;61487.56;5015940;28;20499;-70
2023/06/14 04:53:08;;;;;;;10.95;3.90;;;;;;;-144.87;100.00;61487.56;5013111;28;20029;-70
2023/06/14 04:55:34;;;;;;;7.38;4.45;;;;;;;-144.87;100.00;61487.56;5017695;28;20057;-71
2023/06/14 04:58:03;;;;;;;9.55;4.07;;;;;;;-144.87;100.00;61487.56;5002512;28;20061;-70
2023/06/14 05:00:30;;;;;;;12.60;4.03;;;;;;;-144.87;100.00;61487.56;5002194;28;20408;-70
2023/06/14 05:02:56;;;;;;;18.70;4.50;;;;;;;-144.87;100.00;61487.56;5016132;28;20057;-70
2023/06/14 05:05:24;;;;;;;15.45;4.60;;;;;;;-144.87;100.00;61487.56;5011669;28;20030;-70
2023/06/14 05:07:51;;;;;;;15.98;4.13;;;;;;;-144.87;100.00;61487.56;5032892;28;20042;-70
2023/06/14 05:10:17;;;;;;;6.45;4.03;;;;;;;-144.87;100.00;61487.56;5017221;28;20503;-71
2023/06/14 05:12:43;;;;;;;9.80;4.38;;;;;;;-144.87;100.00;61487.56;4997735;28;20038;-71
2023/06/14 05:15:11;;;;;;;13.07;4.75;;;;;;;-144.87;100.00;61487.56;5010232;28;20076;-71
2023/06/14 05:17:40;;;;;;;6.80;3.75;;;;;;;-144.87;100.00;61487.56;4999095;28;20037;-71
2023/06/14 05:20:07;;;;;;;10.95;4.20;;;;;;;-144.87;100.00;61487.56;5020082;28;20054;-69
2023/06/14 05:22:33;;;;;;;9.68;3.67;;;;;;;-144.87;100.00;61487.56;5019009;28;20041;-68
2023/06/14 05:24:59;;;;;;;8.52;3.72;;;;;;;-144.87;100.00;61487.56;5018917;28;20689;-70
2023/06/14 05:27:26;;;;;;;9.93;4.30;;;;;;;-144.87;100.00;61487.56;5018372;28;20037;-71
2023/06/14 05:29:55;;;;;;;12.32;4.32;;;;;;;-144.87;100.00;61487.56;5019576;28;20302;-71
2023/06/14 05:32:21;;;;;;;17.27;5.00;;;;;;;-144.87;100.00;61487.56;5021702;28;20042;-71
2023/06/14 05:34:48;;;;;;;10.82;3.72;;;;;;;-144.87;100.00;61487.56;5020249;28;20037;-72
2023/06/14 05:37:14;;;;;;;15.85;3.90;;;;;;;-144.87;100.00;61487.56;5013499;28;20037;-71
2023/06/14 05:39:41;;;;;;;9.18;4.30;;;;;;;-144.87;100.00;61487.56;5017659;28;20084;-71
2023/06/14 05:42:07;;;;;;;6.55;3.58;;;;;;;-144.87;100.00;61487.56;5019495;28;20049;-71
2023/06/14 05:44:33;;;;;;;16.30;4.20;;;;;;;-144.87;100.00;61487.56;5021791;28;20124;-72
2023/06/14 05:47:00;;;;;;;10.38;4.10;;;;;;;-144.87;100.00;61487.56;5023206;28;20045;-72
2023/06/14 05:49:26;;;;;;;10.95;4.10;;;;;;;-144.87;100.00;61487.56;5019737;28;20093;-72
2023/06/14 05:51:52;;;;;;;18.60;4.03;;;;;;;-144.87;100.00;61487.56;5012313;28;20077;-69
2023/06/14 05:54:19;;;;;;;8.75;3.80;;;;;;;-144.87;100.00;61487.56;5018447;28;20076;-72
2023/06/14 05:56:45;;;;;;;8.93;3.75;;;;;;;-144.87;100.00;61487.56;5016310;28;20042;-72
2023/06/14 05:59:11;;;;;;;15.00;4.00;;;;;;;-144.87;100.00;61487.56;5037768;28;20507;-71
2023/06/14 06:01:40;;;;;;;8.80;3.72;;;;;;;-144.87;100.00;61487.56;5028289;28;20033;-70
2023/06/14 06:04:07;;;;;;;11.52;3.85;;;;;;;-144.87;100.00;61487.56;5025015;28;20041;-71
2023/06/14 06:06:33;;;;;;;21.60;4.07;;;;;;;-144.87;100.00;61487.56;5018675;28;20041;-73
2023/06/14 06:09:00;;;;;;;9.60;3.42;;;;;;;-144.87;100.00;61487.56;5024205;28;20030;-70
2023/06/14 06:11:26;;;;;;;10.98;3.90;;;;;;;-144.87;100.00;61487.56;5024442;28;20057;-70
2023/06/14 06:13:53;;;;;;;9.88;4.25;;;;;;;-144.87;100.00;61487.56;5015969;28;20040;-69
2023/06/14 06:16:19;;;;;;;9.55;3.80;;;;;;;-144.87;100.00;61487.56;5013395;28;20039;-70
2023/06/14 06:18:45;;;;;;;11.85;3.80;;;;;;;-144.87;100.00;61487.56;5029509;28;20112;-71
2023/06/14 06:21:12;;;;;;;12.38;3.97;;;;;;;-144.87;100.00;61487.56;5031864;28;20155;-72
2023/06/14 06:23:38;;;;;;;11.88;4.40;;;;;;;-144.87;100.00;61487.56;5019846;28;20215;-71
2023/06/14 06:26:04;;;;;;;23.15;5.03;;;;;;;-144.87;100.00;61487.56;5024165;28;20042;-70
2023/06/14 06:28:30;;;;;;;6.03;4.13;;;;;;;-144.87;100.00;61487.56;5023090;28;20041;-72
2023/06/14 06:30:56;;;;;;;16.27;4.07;;;;;;;-144.87;100.00;61487.56;5032560;28;20034;-72
2023/06/14 06:33:23;;;;;;;8.65;3.97;;;;;;;-144.87;100.00;61487.56;5032751;28;20045;-72
2023/06/14 06:35:49;;;;;;;16.13;4.10;;;;;;;-144.87;100.00;61487.56;5024616;28;20038;-71
2023/06/14 06:38:16;;;;;;;8.63;3.83;;;;;;;-144.87;100.00;61487.56;5014576;28;20065;-71
2023/06/14 06:40:42;;;;;;;13.52;4.10;;;;;;;-144.87;100.00;61487.56;5018862;28;20049;-69
2023/06/14 06:43:08;;;;;;;11.00;4.10;;;;;;;-144.87;100.00;61487.56;5022877;28;20042;-70
2023/06/14 06:45:41;;;;;;;14.77;4.03;;;;;;;-144.87;100.00;61487.56;5022147;28;20045;-70
2023/06/14 06:48:09;;;;;;;16.30;3.90;;;;;;;-144.87;100.00;61487.56;5019992;28;20044;-71
2023/06/14 06:50:36;;;;;;;12.02;5.00;;;;;;;-144.87;100.00;61487.56;5047383;28;20089;-71
2023/06/14 06:53:03;;;;;;;13.82;3.65;;;;;;;-144.87;100.00;61487.56;5014002;28;20033;-71
2023/06/14 06:55:29;;;;;;;11.77;3.60;;;;;;;-144.87;100.00;61487.56;5013588;28;20053;-71
2023/06/14 06:57:55;;;;;;;12.98;3.80;;;;;;;-144.87;100.00;61487.56;5011573;28;20042;-72
2023/06/14 07:00:22;;;;;;;13.25;3.50;;;;;;;-144.87;100.00;61487.56;5045303;28;21456;-71
2023/06/14 07:02:48;;;;;;;11.30;3.30;;;;;;;-144.87;100.00;61487.56;5030901;28;20038;-71
2023/06/14 07:05:14;;;;;;;9.95;3.40;;;;;;;-144.87;100.00;61487.56;5028178;28;20047;-71
2023/06/14 07:07:41;;;;;;;18.17;4.30;;;;;;;-144.87;100.00;61487.56;5016245;28;20030;-72
2023/06/14 07:10:07;;;;;;;10.57;3.60;;;;;;;-144.87;100.00;61487.56;5012201;28;20085;-71
2023/06/14 07:12:38;;;;;;;7.70;3.45;;;;;;;-144.87;100.00;61487.56;4997114;28;20137;-73
2023/06/14 07:15:06;;;;;;;9.40;5.57;;;;;;;-144.87;100.00;61487.56;5018926;28;20353;-70
2023/06/14 07:17:35;;;;;;;8.75;3.60;;;;;;;-144.87;100.00;61487.56;4999921;28;20033;-72
2023/06/14 07:20:07;;;;;;;12.13;4.28;;;;;;;-144.87;100.00;61487.56;5012994;28;20038;-71
2023/06/14 07:22:33;;;;;;;15.60;3.53;;;;;;;-144.87;100.00;61487.56;5010982;28;20469;-71
2023/06/14 07:25:00;;;;;;;12.40;3.58;;;;;;;-144.87;100.00;61487.56;5017716;28;20459;-70
2023/06/14 07:27:26;;;;;;;17.38;3.63;;;;;;;-144.87;100.00;61487.56;5029696;28;20254;-70
2023/06/14 07:29:52;;;;;;;8.20;3.28;;;;;;;-144.87;100.00;61487.56;4999898;28;20124;-71
2023/06/14 07:32:19;;;;;;;5.40;3.47;;;;;;;-144.87;100.00;61487.56;4989726;28;20138;-71
2023/06/14 07:34:46;;;;;;;9.18;3.70;;;;;;;-144.87;100.00;61487.56;4976570;28;20125;-72
2023/06/14 07:37:12;;;;;;;10.88;4.00;;;;;;;-144.87;100.00;61487.56;4993049;28;20062;-71
2023/06/14 07:39:38;;;;;;;11.65;4.10;;;;;;;-144.87;100.00;61487.56;4977558;28;20146;-71
2023/06/14 07:42:05;;;;;;;9.75;3.88;;;;;;;-144.87;100.00;61487.56;4989130;28;20034;-71
2023/06/14 07:44:31;;;;;;;10.35;4.38;;;;;;;-144.87;100.00;61487.56;5010034;28;20060;-71
2023/06/14 07:47:00;;;;;;;8.90;4.22;;;;;;;-144.87;100.00;61487.56;4997770;28;20121;-73
2023/06/14 07:49:27;;;;;;;13.73;4.28;;;;;;;-144.87;100.00;61487.56;4979512;28;20034;-72
2023/06/14 07:51:53;;;;;;;9.02;3.65;;;;;;;-144.87;100.00;61487.56;4994363;28;20044;-71
2023/06/14 07:54:24;;;;;;;11.13;3.72;;;;;;;-144.87;100.00;61487.56;5011735;28;20146;-71
2023/06/14 07:56:51;;;;;;;13.45;3.40;;;;;;;-144.87;100.00;61487.56;4990499;28;20056;-71
2023/06/14 07:59:17;;;;;;;10.75;3.55;;;;;;;-144.87;100.00;61487.56;4996859;28;20496;-70
2023/06/14 08:01:46;;;;;;;7.22;3.15;;;;;;;-144.87;100.00;61487.56;4982816;28;20049;-71
2023/06/14 08:04:16;;;;;;;6.85;3.15;;;;;;;-144.87;100.00;61487.56;4983999;28;20042;-73
2023/06/14 08:06:44;;;;;;;14.25;3.50;;;;;;;-144.87;100.00;61487.56;4983551;28;20373;-73
2023/06/14 08:09:11;;;;;;;10.38;3.40;;;;;;;-144.87;100.00;61487.56;5000927;28;20066;-72
2023/06/14 08:11:40;;;;;;;7.22;2.88;;;;;;;-144.87;100.00;61487.56;5013681;28;20070;-70
2023/06/14 08:14:24;;;;;;;6.00;2.95;;;;;;;-144.87;100.00;61487.56;5012440;28;20068;-72
2023/06/14 08:16:51;;;;;;;5.82;3.30;;;;;;;-144.87;100.00;61487.56;5011663;28;20041;-73
2023/06/14 08:19:18;;;;;;;11.85;3.08;;;;;;;-144.87;100.00;61487.56;5011251;28;20125;-71
2023/06/14 08:21:46;;;;;;;10.98;3.00;;;;;;;-144.87;100.00;61487.56;5022392;28;20037;-71
2023/06/14 08:24:12;;;;;;;7.75;3.00;;;;;;;-144.87;100.00;61487.56;5027748;28;20041;-72
2023/06/14 08:26:39;;;;;;;8.43;3.20;;;;;;;-144.87;100.00;61487.56;5024691;28;20029;-72
2023/06/14 08:29:06;;;;;;;6.35;2.70;;;;;;;-144.87;100.00;61487.56;5013323;28;20364;-71
2023/06/14 08:31:33;;;;;;;8.65;2.65;;;;;;;-144.87;100.00;61487.56;5010325;28;20069;-72
2023/06/14 08:34:00;;;;;;;11.55;2.90;;;;;;;-144.87;100.00;61487.56;5013546;28;20042;-71
2023/06/14 08:36:26;;;;;;;7.65;2.95;;;;;;;-144.87;100.00;61487.56;5014706;28;20526;-72
2023/06/14 08:38:52;;;;;;;11.75;2.90;;;;;;;-144.87;100.00;61487.56;5037814;28;20052;-73
2023/06/14 08:41:25;;;;;;;5.82;2.63;;;;;;;-144.87;100.00;61487.56;5038882;28;20048;-71
2023/06/14 08:43:52;;;;;;;7.28;2.45;;;;;;;-144.87;100.00;61487.56;5022565;28;20061;-71
2023/06/14 08:46:22;;;;;;;7.20;2.50;;;;;;;-144.87;100.00;61487.56;5017327;28;20088;-72
2023/06/14 08:48:53;;;;;;;9.25;2.80;;;;;;;-144.87;100.00;61487.56;5012782;28;20070;-72
2023/06/14 08:51:22;;;;;;;6.18;2.40;;;;;;;-144.87;100.00;61487.56;5010884;28;20082;-72
2023/06/14 08:53:58;;;;;;;8.60;2.40;;;;;;;-144.87;100.00;61487.56;5011166;28;20049;-72
2023/06/14 08:56:28;;;;;;;9.10;2.60;;;;;;;-144.87;100.00;61487.56;5011584;28;20415;-72
2023/06/14 08:58:54;;;;;;;9.00;2.78;;;;;;;-144.87;100.00;61487.56;5011192;28;20046;-72
2023/06/14 09:01:21;;;;;;;4.53;2.30;;;;;;;-144.87;100.00;61487.56;5018079;28;20470;-72
2023/06/14 09:03:49;;;;;;;7.03;2.83;;;;;;;-144.87;100.00;61487.56;5011411;28;20081;-72
2023/06/14 09:06:16;;;;;;;7.22;2.40;;;;;;;-144.87;100.00;61487.56;5042657;28;20037;-71
2023/06/14 09:08:44;;;;;;;7.60;3.05;;;;;;;-144.87;100.00;61487.56;5025146;28;20025;-71
2023/06/14 09:11:18;;;;;;;6.88;2.17;;;;;;;-144.87;100.00;61487.56;5009220;28;20050;-70
2023/06/14 09:13:46;;;;;;;14.35;2.88;;;;;;;-144.87;100.00;61487.56;5014711;28;20042;-74
2023/06/14 09:16:12;;;;;;;5.60;2.53;;;;;;;-144.87;100.00;61487.56;5030678;28;20045;-72
2023/06/14 09:18:44;;;;;;;4.63;2.38;;;;;;;-144.87;100.00;61487.56;5022713;28;20117;-70
2023/06/14 09:21:11;;;;;;;13.07;2.70;;;;;;;-144.87;100.00;61487.56;5011753;28;20034;-70
2023/06/14 09:23:39;;;;;;;4.05;2.22;;;;;;;-144.87;100.00;61487.56;5019664;28;20052;-71
2023/06/14 09:26:10;;;;;;;8.95;2.40;;;;;;;-144.87;100.00;61487.56;5014480;28;20053;-72
2023/06/14 09:28:40;;;;;;;9.07;2.30;;;;;;;-144.87;100.00;61487.56;5018354;28;20041;-71
2023/06/14 09:31:09;;;;;;;9.82;2.10;;;;;;;-144.87;100.00;61487.56;5032460;28;20033;-72
2023/06/14 09:33:36;;;;;;;3.83;2.30;;;;;;;-144.87;100.00;61487.56;5033876;28;20136;-73
2023/06/14 09:36:03;;;;;;;6.18;2.15;;;;;;;-144.87;100.00;61487.56;5031995;28;20093;-71
2023/06/14 09:38:29;;;;;;;11.73;2.35;;;;;;;-144.87;100.00;61487.56;5028702;28;20044;-72
2023/06/14 09:40:59;;;;;;;8.95;2.10;;;;;;;-144.87;100.00;61487.56;5012086;28;20037;-72
2023/06/14 09:43:27;;;;;;;4.60;2.15;;;;;;;-144.87;100.00;61487.56;5021215;28;20041;-72
2023/06/14 09:45:54;;;;;;;6.63;2.38;;;;;;;-144.87;100.00;61487.56;5033555;28;20037;-73
2023/06/14 09:48:21;;;;;;;6.30;1.85;;;;;;;-144.87;100.00;61487.56;5034837;28;20033;-72
2023/06/14 09:50:50;;;;;;;4.32;2.03;;;;;;;-144.87;100.00;61487.56;5038903;28;20132;-72
2023/06/14 09:53:17;;;;;;;6.82;2.20;;;;;;;-144.87;100.00;61487.56;5036574;28;20034;-71
2023/06/14 09:55:44;;;;;;;5.40;2.00;;;;;;;-144.87;100.00;61487.56;5037107;28;20056;-72
2023/06/14 09:58:11;;;;;;;6.57;2.17;;;;;;;-144.87;100.00;61487.56;5019610;28;20036;-71
2023/06/14 10:00:40;;;;;;;10.55;2.28;;;;;;;-144.87;100.00;61487.56;5002423;28;20039;-73
2023/06/14 10:03:12;;;;;;;12.15;2.35;;;;;;;-144.87;100.00;61487.56;5027458;28;20034;-72
2023/06/14 10:05:40;;;;;;;4.00;2.03;;;;;;;-144.87;100.00;61487.56;5027017;28;20029;-72
2023/06/14 10:08:09;;;;;;;2.85;1.75;;;;;;;-144.87;100.00;61487.56;5017061;28;20125;-72
2023/06/14 10:10:35;;;;;;;13.68;2.72;;;;;;;-144.87;100.00;61487.56;5030157;28;20112;-72
2023/06/14 10:13:02;;;;;;;45.97;2.42;;;;;;;-144.87;100.00;61487.56;5034226;28;20045;-73
2023/06/14 10:15:42;;;;;;;5.13;2.08;;;;;;;-144.87;100.00;61487.56;5031202;28;20131;-72
2023/06/14 10:18:22;;;;;;;12.10;2.40;;;;;;;-144.87;100.00;61487.56;5031881;28;20037;-72
2023/06/14 10:21:08;;;;;;;11.80;1.90;;;;;;;-144.87;100.00;61487.56;5030362;28;20029;-72
2023/06/14 10:23:39;;;;;;;7.97;2.08;;;;;;;-144.87;100.00;61487.56;5023440;28;20726;-73
2023/06/14 10:26:05;;;;;;;3.63;2.10;;;;;;;-144.87;100.00;61487.56;5019345;28;20042;-69
2023/06/14 10:28:32;;;;;;;11.40;2.08;;;;;;;-144.87;100.00;61487.56;5003993;28;20034;-71
2023/06/14 10:31:10;;;;;;;9.85;2.35;;;;;;;-144.87;100.00;61487.56;5019149;28;20034;-71
2023/06/14 10:33:40;;;;;;;4.07;1.85;;;;;;;-144.87;100.00;61487.56;5013915;28;20049;-72
2023/06/14 10:36:31;;;;;;;5.07;1.67;;;;;;;-144.87;100.00;61487.56;5011548;28;20042;-71
2023/06/14 10:39:00;;;;;;;8.45;2.17;;;;;;;-144.87;100.00;61487.56;5013041;28;20092;-71
2023/06/14 10:41:29;;;;;;;8.10;1.95;;;;;;;-144.87;100.00;61487.56;5027191;28;20038;-70
2023/06/14 10:44:14;;;;;;;8.45;1.98;;;;;;;-144.87;100.00;61487.56;5030404;28;20046;-71
2023/06/14 10:46:47;;;;;;;7.65;1.90;;;;;;;-144.87;100.00;61487.56;5014893;28;20132;-72
2023/06/14 10:49:19;;;;;;;4.00;2.10;;;;;;;-144.87;100.00;61487.56;5013848;28;20061;-71
2023/06/14 10:51:50;;;;;;;3.67;1.98;;;;;;;-144.87;100.00;61487.56;5012050;28;20064;-71
2023/06/14 10:54:17;;;;;;;6.45;2.13;;;;;;;-144.87;100.00;61487.56;5011437;28;20038;-72
2023/06/14 10:56:54;;;;;;;8.38;2.08;;;;;;;-144.87;100.00;61487.56;5016224;28;20037;-71
2023/06/14 10:59:21;;;;;;;4.60;2.17;;;;;;;-144.87;100.00;61487.56;5031642;28;20044;-71
2023/06/14 11:02:12;;;;;;;6.22;2.30;;;;;;;-144.87;100.00;61487.56;5018800;28;20033;-72
2023/06/14 11:04:52;;;;;;;5.28;1.83;;;;;;;-144.87;100.00;61487.56;4997636;28;20124;-71
2023/06/14 11:07:27;;;;;;;7.63;1.73;;;;;;;-144.87;100.00;61487.56;5016126;28;20324;-72
2023/06/14 11:10:27;;;;;;;6.65;2.15;;;;;;;-144.87;100.00;61487.56;5021429;28;20052;-72